createdAt,value
2022-10-05T00:02:15.106Z,5.93
2022-10-05T00:04:41.769Z,6.30
2022-10-05T00:07:14.083Z,5.90
2022-10-05T00:09:41.167Z,6.47
2022-10-05T00:12:15.073Z,5.55
2022-10-05T00:14:42.071Z,5.80
2022-10-05T00:17:15.244Z,6.15
2022-10-05T00:19:43.018Z,5.55
2022-10-05T00:22:14.267Z,5.57
2022-10-05T00:24:40.955Z,5.72
2022-10-05T00:27:15.214Z,5.18
2022-10-05T00:29:41.827Z,5.47
2022-10-05T00:32:09.196Z,5.65
2022-10-05T00:34:37.645Z,5.22
2022-10-05T00:37:04.777Z,5.35
2022-10-05T00:39:32.013Z,5.10
2022-10-05T00:42:15.606Z,4.93
2022-10-05T00:44:45.859Z,4.93
2022-10-05T00:47:27.601Z,4.68
2022-10-05T00:50:20.968Z,4.80
2022-10-05T00:52:54.714Z,4.85
2022-10-05T00:55:32.062Z,4.95
2022-10-05T00:58:08.074Z,5.13
2022-10-05T01:00:45.433Z,4.88
2022-10-05T01:03:18.797Z,4.45
2022-10-05T01:06:00.696Z,4.60
2022-10-05T01:08:39.702Z,4.90
2022-10-05T01:11:13.547Z,4.90
2022-10-05T01:13:49.640Z,5.10
2022-10-05T01:16:24.507Z,4.63
2022-10-05T01:18:59.046Z,4.85
2022-10-05T01:21:28.623Z,4.88
2022-10-05T01:27:21.127Z,4.70
2022-10-05T01:29:54.757Z,4.82
2022-10-05T01:32:28.955Z,5.00
2022-10-05T01:35:06.005Z,4.25
2022-10-05T01:37:41.992Z,5.00
2022-10-05T01:40:17.539Z,4.97
2022-10-05T01:42:58.399Z,4.63
2022-10-05T01:45:35.242Z,4.70
2022-10-05T01:48:08.470Z,4.60
2022-10-05T01:50:47.381Z,4.15
2022-10-05T01:53:27.763Z,4.65
2022-10-05T01:56:01.771Z,4.55
2022-10-05T01:58:36.916Z,4.57
2022-10-05T02:01:12.490Z,4.50
2022-10-05T02:03:44.834Z,4.25
2022-10-05T02:06:15.213Z,4.55
2022-10-05T02:08:46.773Z,4.70
2022-10-05T02:11:14.628Z,4.38
2022-10-05T02:13:44.418Z,4.82
2022-10-05T02:16:17.024Z,4.65
2022-10-05T02:18:50.324Z,3.97
2022-10-05T02:21:18.337Z,4.93
2022-10-05T02:23:47.078Z,4.60
2022-10-05T02:26:13.781Z,5.10
2022-10-05T02:28:46.354Z,4.53
2022-10-05T02:31:17.885Z,4.90
2022-10-05T02:33:44.514Z,5.10
2022-10-05T02:36:15.209Z,5.95
2022-10-05T02:38:55.567Z,5.35
2022-10-05T02:41:33.396Z,5.50
2022-10-05T02:44:10.667Z,4.55
2022-10-05T02:46:47.293Z,4.60
2022-10-05T02:49:23.485Z,4.10
2022-10-05T02:51:58.051Z,4.80
2022-10-05T02:59:35.878Z,4.20
2022-10-05T03:45:18.236Z,5.20
2022-10-05T03:50:31.664Z,5.30
2022-10-05T03:53:03.793Z,5.60
2022-10-05T03:55:36.756Z,5.30
2022-10-05T03:58:11.224Z,5.28
2022-10-05T04:00:40.913Z,4.90
2022-10-05T04:03:15.719Z,5.10
2022-10-05T04:05:47.643Z,5.30
2022-10-05T04:08:21.581Z,5.40
2022-10-05T04:10:50.740Z,4.80
2022-10-05T04:13:23.562Z,5.10
2022-10-05T04:15:57.543Z,5.13
2022-10-05T04:18:28.661Z,5.20
2022-10-05T04:20:59.873Z,5.50
2022-10-05T04:23:39.507Z,5.85
2022-10-05T04:26:11.653Z,5.85
2022-10-05T04:28:54.122Z,5.95
2022-10-05T04:31:35.581Z,6.28
2022-10-05T04:34:14.485Z,5.97
2022-10-05T04:36:48.875Z,6.63
2022-10-05T04:39:23.716Z,6.65
2022-10-05T04:42:02.810Z,7.00
2022-10-05T04:44:42.883Z,6.00
2022-10-05T04:47:28.985Z,6.00
2022-10-05T04:50:12.406Z,5.45
2022-10-05T04:52:47.196Z,5.13
2022-10-05T04:55:25.046Z,5.15
2022-10-05T04:58:01.402Z,5.72
2022-10-05T05:00:33.949Z,5.47
2022-10-05T05:03:23.980Z,5.50
2022-10-05T05:06:18.239Z,5.20
2022-10-05T05:09:18.712Z,4.97
2022-10-05T05:11:56.196Z,5.30
2022-10-05T05:14:39.106Z,5.30
2022-10-05T05:17:17.923Z,5.20
2022-10-05T05:19:53.566Z,5.55
2022-10-05T05:22:29.161Z,6.00
2022-10-05T05:25:16.758Z,5.63
2022-10-05T05:27:48.486Z,5.77
2022-10-05T05:30:21.953Z,6.30
2022-10-05T05:33:06.912Z,5.35
2022-10-05T05:36:13.841Z,5.68
2022-10-05T05:38:48.314Z,6.65
2022-10-05T05:41:20.243Z,5.45
2022-10-05T05:43:58.248Z,5.50
2022-10-05T05:46:58.307Z,5.50
2022-10-05T05:49:24.095Z,5.00
2022-10-05T05:51:57.607Z,5.45
2022-10-05T05:54:31.508Z,5.72
2022-10-05T05:57:06.473Z,4.97
2022-10-05T05:59:44.242Z,5.32
2022-10-05T06:02:14.913Z,5.38
2022-10-05T06:04:45.888Z,5.10
2022-10-05T06:07:18.908Z,5.50
2022-10-05T06:09:54.457Z,5.47
2022-10-05T06:12:25.047Z,5.50
2022-10-05T06:14:55.998Z,5.30
2022-10-05T06:17:26.858Z,5.50
2022-10-05T06:20:01.102Z,5.80
2022-10-05T06:22:38.754Z,5.50
2022-10-05T06:25:23.173Z,5.55
2022-10-05T06:28:03.441Z,5.25
2022-10-05T06:30:44.921Z,6.30
2022-10-05T06:33:23.931Z,6.50
2022-10-05T06:36:06.892Z,6.85
2022-10-05T06:39:15.256Z,5.93
2022-10-05T06:41:58.797Z,6.45
2022-10-05T06:44:32.615Z,7.00
2022-10-05T06:47:07.406Z,6.47
2022-10-05T06:49:43.051Z,6.88
2022-10-05T06:52:19.686Z,6.97
2022-10-05T06:54:54.759Z,7.00
2022-10-05T06:57:49.180Z,7.10
2022-10-05T07:00:21.103Z,7.68
2022-10-05T07:02:55.669Z,6.75
2022-10-05T07:05:45.215Z,7.93
2022-10-05T07:08:15.333Z,8.07
2022-10-05T07:10:54.077Z,7.78
2022-10-05T07:13:42.483Z,7.55
2022-10-05T07:16:18.559Z,7.03
2022-10-05T07:18:53.221Z,7.82
2022-10-05T07:21:28.630Z,8.20
2022-10-05T07:24:04.590Z,7.30
2022-10-05T07:26:37.486Z,8.20
2022-10-05T07:29:29.087Z,8.50
2022-10-05T07:32:03.539Z,7.65
2022-10-05T07:34:39.862Z,8.02
2022-10-05T07:37:12.394Z,7.70
2022-10-05T07:40:00.049Z,7.70
2022-10-05T07:42:48.917Z,8.10
2022-10-05T07:45:27.541Z,7.72
2022-10-05T07:47:56.246Z,7.70
2022-10-05T07:50:27.622Z,7.60
2022-10-05T07:52:57.649Z,7.03
2022-10-05T07:55:26.269Z,6.30
2022-10-05T07:58:06.155Z,6.43
2022-10-05T08:01:04.246Z,7.00
2022-10-05T08:03:42.848Z,6.20
2022-10-05T08:06:12.039Z,6.60
2022-10-05T08:08:47.949Z,6.43
2022-10-05T08:11:18.848Z,6.30
2022-10-05T08:13:51.711Z,5.90
2022-10-05T08:16:20.112Z,6.30
2022-10-05T08:18:56.196Z,6.03
2022-10-05T08:21:27.545Z,5.70
2022-10-05T08:23:57.850Z,6.10
2022-10-05T08:26:31.602Z,6.32
2022-10-05T08:29:13.658Z,5.55
2022-10-05T08:31:46.849Z,6.00
2022-10-05T08:34:22.583Z,5.53
2022-10-05T08:36:59.373Z,5.22
2022-10-05T08:39:30.565Z,5.63
2022-10-05T08:42:27.388Z,4.95
2022-10-05T08:45:26.112Z,5.18
2022-10-05T08:48:14.906Z,5.13
2022-10-05T08:51:12.496Z,5.20
2022-10-05T08:54:20.731Z,5.13
2022-10-05T08:56:59.676Z,5.25
2022-10-05T08:59:52.484Z,4.95
2022-10-05T09:02:28.317Z,4.95
2022-10-05T09:05:18.001Z,4.80
2022-10-05T09:08:03.337Z,5.10
2022-10-05T09:10:58.106Z,4.78
2022-10-05T09:14:11.063Z,4.70
2022-10-05T09:17:09.366Z,4.43
2022-10-05T09:19:59.890Z,3.45
2022-10-05T09:22:45.685Z,4.00
2022-10-05T09:25:22.781Z,3.42
2022-10-05T09:27:56.181Z,3.60
2022-10-05T09:30:27.357Z,3.50
2022-10-05T09:33:31.553Z,3.35
2022-10-05T09:36:38.046Z,3.65
2022-10-05T09:39:41.447Z,3.30
2022-10-05T09:42:43.535Z,2.85
2022-10-05T09:45:36.181Z,3.03
2022-10-05T09:48:34.570Z,2.95
2022-10-05T09:51:46.130Z,2.35
2022-10-05T09:54:54.445Z,2.40
2022-10-05T09:57:56.653Z,2.60
2022-10-05T10:00:37.139Z,2.33
2022-10-05T10:03:28.809Z,2.05
2022-10-05T10:06:06.853Z,2.40
2022-10-05T10:08:45.687Z,2.10
2022-10-05T10:11:28.968Z,2.33
2022-10-05T10:14:20.278Z,1.98
2022-10-05T10:17:00.240Z,1.90
2022-10-05T10:20:01.365Z,1.63
2022-10-05T10:23:04.557Z,1.58
2022-10-05T10:25:48.135Z,1.80
2022-10-05T10:28:34.960Z,1.50
2022-10-05T10:31:41.151Z,1.60
2022-10-05T10:34:36.904Z,1.60
2022-10-05T10:37:33.460Z,1.70
2022-10-05T10:40:20.212Z,1.48
2022-10-05T10:43:04.761Z,1.48
2022-10-05T10:45:48.110Z,1.60
2022-10-05T10:48:50.072Z,1.80
2022-10-05T10:51:24.852Z,1.77
2022-10-05T10:54:34.886Z,1.83
2022-10-05T10:57:07.019Z,1.85
2022-10-05T11:00:19.696Z,1.67
2022-10-05T11:03:15.876Z,1.80
2022-10-05T11:06:18.371Z,1.60
2022-10-05T11:09:14.950Z,1.80
2022-10-05T11:12:19.671Z,1.80
2022-10-05T11:15:09.239Z,1.60
2022-10-05T11:17:59.625Z,1.80
2022-10-05T11:20:59.833Z,1.40
2022-10-05T11:23:50.013Z,1.15
2022-10-05T11:26:42.249Z,1.38
2022-10-05T11:29:41.328Z,1.50
2022-10-05T11:32:39.196Z,1.42
2022-10-05T11:35:32.512Z,1.33
2022-10-05T11:38:15.204Z,1.30
2022-10-05T11:41:29.047Z,1.45
2022-10-05T11:44:43.229Z,1.00
2022-10-05T11:47:17.148Z,1.40
2022-10-05T11:49:52.296Z,1.35
2022-10-05T11:52:24.437Z,1.30
2022-10-05T11:55:13.321Z,1.15
2022-10-05T11:57:50.396Z,1.40
2022-10-05T12:00:28.574Z,1.20
2022-10-05T12:03:35.730Z,1.30
2022-10-05T12:06:15.775Z,1.70
2022-10-05T12:09:01.223Z,1.40
2022-10-05T12:12:02.813Z,1.27
2022-10-05T12:14:48.510Z,1.33
2022-10-05T12:17:29.126Z,1.40
2022-10-05T12:20:00.385Z,1.27
2022-10-05T12:22:40.829Z,1.45
2022-10-05T12:25:27.610Z,1.80
2022-10-05T12:28:14.721Z,1.40
2022-10-05T12:31:13.960Z,1.15
2022-10-05T12:33:50.707Z,1.02
2022-10-05T12:36:59.219Z,1.33
2022-10-05T12:39:32.357Z,1.10
2022-10-05T12:43:11.430Z,1.27
2022-10-05T12:56:44.121Z,1.20
2022-10-05T13:06:45.288Z,1.40
2022-10-05T13:09:47.317Z,1.40
2022-10-05T13:13:23.197Z,1.40
2022-10-05T13:16:11.796Z,1.17
2022-10-05T13:19:21.557Z,1.30
2022-10-05T13:23:08.467Z,1.30
2022-10-05T13:26:01.419Z,1.48
2022-10-05T13:32:12.151Z,1.40
2022-10-05T13:39:15.372Z,1.20
2022-10-05T13:44:59.447Z,1.08
2022-10-05T13:47:56.282Z,1.45
2022-10-05T13:50:33.904Z,1.45
2022-10-05T13:53:34.011Z,1.20
2022-10-05T13:56:38.827Z,1.17
2022-10-05T13:59:43.745Z,1.30
2022-10-05T14:02:52.127Z,1.27
2022-10-05T14:06:05.421Z,1.23
2022-10-05T14:12:37.010Z,1.70
2022-10-05T14:15:26.786Z,1.20
2022-10-05T14:18:04.103Z,1.48
2022-10-05T14:20:41.570Z,1.50
2022-10-05T14:23:18.479Z,1.30
2022-10-05T14:25:59.605Z,1.50
2022-10-05T14:28:30.419Z,1.77
2022-10-05T14:31:13.788Z,1.50
2022-10-05T14:33:52.011Z,1.42
2022-10-05T14:36:35.602Z,1.35
2022-10-05T14:39:02.981Z,1.20
2022-10-05T14:41:46.343Z,1.20
2022-10-05T14:44:47.298Z,1.40
2022-10-05T14:47:21.031Z,1.55
2022-10-05T14:49:52.536Z,1.20
2022-10-05T14:52:51.661Z,1.17
2022-10-05T14:55:44.184Z,1.20
2022-10-05T14:58:59.189Z,1.83
2022-10-05T15:01:34.880Z,1.40
2022-10-05T15:04:35.037Z,1.52
2022-10-05T15:07:18.655Z,1.25
2022-10-05T15:10:21.763Z,1.55
2022-10-05T15:12:50.876Z,1.52
2022-10-05T15:15:28.462Z,1.50
2022-10-05T15:18:15.101Z,1.40
2022-10-05T15:20:55.964Z,1.50
2022-10-05T15:23:36.178Z,1.67
2022-10-05T15:26:40.860Z,1.50
2022-10-05T15:29:36.966Z,1.40
2022-10-05T15:32:22.993Z,1.27
2022-10-05T15:35:11.410Z,1.80
2022-10-05T15:40:52.756Z,1.63
2022-10-05T15:43:31.440Z,1.50
2022-10-05T15:46:15.964Z,1.58
2022-10-05T15:48:52.988Z,1.50
2022-10-05T15:51:38.631Z,1.77
2022-10-05T15:54:38.434Z,1.70
2022-10-05T15:57:20.225Z,1.50
2022-10-05T16:00:11.138Z,1.90
2022-10-05T16:02:54.876Z,1.80
2022-10-05T16:05:33.784Z,1.50
2022-10-05T16:08:01.091Z,1.67
2022-10-05T16:10:39.486Z,1.90
2022-10-05T16:13:35.110Z,1.97
2022-10-05T16:16:21.452Z,1.45
2022-10-05T16:19:03.345Z,1.45
2022-10-05T16:21:40.271Z,2.20
2022-10-05T16:24:24.607Z,1.92
2022-10-05T16:29:50.780Z,1.75
2022-10-05T16:36:07.829Z,1.98
2022-10-05T16:38:58.301Z,2.30
2022-10-05T16:42:07.410Z,2.78
2022-10-05T16:45:10.410Z,2.60
2022-10-05T16:47:46.997Z,2.75
2022-10-05T16:50:40.769Z,2.60
2022-10-05T16:53:34.154Z,3.05
2022-10-05T16:56:09.206Z,3.15
2022-10-05T16:59:08.285Z,5.55
2022-10-05T17:01:57.762Z,5.60
2022-10-05T17:04:41.351Z,4.60
2022-10-05T17:07:42.126Z,3.60
2022-10-05T17:10:48.155Z,3.30
2022-10-05T17:13:39.571Z,2.97
2022-10-05T17:16:19.707Z,3.08
2022-10-05T17:19:21.124Z,3.28
2022-10-05T17:21:57.589Z,3.00
2022-10-05T17:24:37.131Z,5.07
2022-10-05T17:27:16.752Z,5.40
2022-10-05T17:29:50.707Z,6.82
2022-10-05T17:32:57.759Z,6.53
2022-10-05T17:35:58.468Z,5.30
2022-10-05T17:38:51.233Z,5.55
2022-10-05T17:41:30.099Z,5.72
2022-10-05T17:44:20.695Z,4.60
2022-10-05T17:46:49.706Z,4.95
2022-10-05T17:49:46.912Z,3.88
2022-10-05T17:52:41.557Z,3.50
2022-10-05T17:55:38.446Z,3.92
2022-10-05T17:58:57.124Z,4.15
2022-10-05T18:01:45.530Z,5.05
2022-10-05T18:04:50.259Z,5.33
2022-10-05T18:07:58.991Z,4.80
2022-10-05T18:11:14.584Z,5.50
2022-10-05T18:17:45.231Z,4.80
2022-10-05T18:20:32.817Z,5.53
2022-10-05T18:23:29.684Z,5.63
2022-10-05T18:26:16.254Z,5.72
2022-10-05T18:29:19.598Z,6.15
2022-10-05T18:31:57.170Z,5.30
2022-10-05T18:34:38.587Z,5.40
2022-10-05T18:37:28.063Z,5.35
2022-10-05T18:40:13.095Z,5.80
2022-10-05T18:42:48.471Z,6.72
2022-10-05T18:45:24.584Z,6.05
2022-10-05T18:48:06.757Z,7.07
2022-10-05T18:50:43.803Z,7.50
2022-10-05T18:53:31.624Z,7.65
2022-10-05T18:56:14.475Z,7.15
2022-10-05T18:58:56.777Z,7.50
2022-10-05T19:02:03.812Z,7.55
2022-10-05T19:04:43.647Z,7.57
2022-10-05T19:07:28.395Z,7.45
2022-10-05T19:10:08.320Z,7.05
2022-10-05T19:12:52.775Z,6.70
2022-10-05T19:15:28.342Z,7.03
2022-10-05T19:18:35.077Z,6.47
2022-10-05T19:21:16.651Z,6.38
2022-10-05T19:24:23.360Z,6.22
2022-10-05T19:27:00.887Z,6.60
2022-10-05T19:29:44.605Z,6.65
2022-10-05T19:32:23.114Z,6.55
2022-10-05T19:35:14.252Z,7.20
2022-10-05T19:37:50.507Z,7.05
2022-10-05T19:40:26.174Z,7.70
2022-10-05T19:43:17.994Z,7.43
2022-10-05T19:45:58.637Z,6.38
2022-10-05T19:48:32.138Z,6.80
2022-10-05T19:51:01.556Z,6.15
2022-10-05T19:53:36.233Z,5.43
2022-10-05T19:56:17.148Z,6.15
2022-10-05T19:58:45.827Z,5.90
2022-10-05T20:01:22.882Z,5.47
2022-10-05T20:03:53.791Z,5.57
2022-10-05T20:06:21.570Z,5.88
2022-10-05T20:08:56.685Z,5.72
2022-10-05T20:11:28.534Z,6.50
2022-10-05T20:14:19.445Z,5.10
2022-10-05T20:16:46.193Z,5.43
2022-10-05T20:19:35.160Z,5.47
2022-10-05T20:22:22.914Z,5.43
2022-10-05T20:24:51.754Z,5.05
2022-10-05T20:27:36.607Z,5.10
2022-10-05T20:30:04.015Z,5.57
2022-10-05T20:32:33.946Z,5.28
2022-10-05T20:35:01.309Z,4.82
2022-10-05T20:37:28.372Z,5.10
2022-10-05T20:39:55.381Z,5.00
2022-10-05T20:42:22.271Z,5.65
2022-10-05T20:44:55.836Z,5.70
2022-10-05T20:47:23.673Z,4.88
2022-10-05T20:49:53.666Z,5.53
2022-10-05T20:52:21.373Z,4.78
2022-10-05T20:54:48.105Z,5.63
2022-10-05T20:57:14.887Z,5.40
2022-10-05T20:59:44.775Z,5.30
2022-10-05T21:02:38.612Z,5.28
2022-10-05T21:05:09.189Z,5.38
2022-10-05T21:07:36.077Z,5.78
2022-10-05T21:10:05.803Z,5.35
2022-10-05T21:12:32.633Z,4.63
2022-10-05T21:14:59.252Z,5.60
2022-10-05T21:17:27.315Z,5.07
2022-10-05T21:19:53.996Z,5.47
2022-10-05T21:22:22.195Z,4.93
2022-10-05T21:24:48.800Z,5.13
2022-10-05T21:27:15.372Z,5.40
2022-10-05T21:29:42.068Z,5.40
2022-10-05T21:32:08.867Z,5.38
2022-10-05T21:34:38.321Z,5.03
2022-10-05T21:39:31.412Z,5.57
2022-10-05T21:41:58.013Z,5.38
2022-10-05T21:44:24.918Z,5.15
2022-10-05T21:46:51.956Z,4.97
2022-10-05T21:49:19.834Z,4.97
2022-10-05T21:51:50.346Z,5.10
2022-10-05T21:54:21.149Z,5.32
2022-10-05T21:56:50.675Z,5.53
2022-10-05T21:59:20.124Z,5.32
2022-10-05T22:04:13.310Z,5.80
2022-10-05T22:06:39.927Z,5.93
2022-10-05T22:09:07.911Z,5.60
2022-10-05T22:11:34.704Z,5.93
2022-10-05T22:14:01.348Z,6.07
2022-10-05T22:16:29.571Z,6.25
2022-10-05T22:18:56.219Z,6.40
2022-10-05T22:21:22.880Z,6.20
2022-10-05T22:23:49.814Z,6.45
2022-10-05T22:26:21.277Z,6.57
2022-10-05T22:28:48.106Z,7.28
2022-10-05T22:31:15.360Z,6.72
2022-10-05T22:33:42.021Z,6.00
2022-10-05T22:36:09.599Z,6.80
2022-10-05T22:38:36.454Z,6.43
2022-10-05T22:41:03.120Z,7.32
2022-10-05T22:43:31.081Z,7.32
2022-10-05T22:45:57.737Z,6.85
2022-10-05T22:48:24.451Z,6.88
2022-10-05T22:50:51.052Z,6.07
2022-10-05T22:53:17.952Z,7.15
2022-10-05T22:55:44.639Z,6.85
2022-10-05T22:58:11.228Z,6.28
2022-10-05T23:00:57.649Z,6.32
2022-10-05T23:03:25.151Z,6.18
2022-10-05T23:05:56.332Z,7.30
2022-10-05T23:08:23.011Z,7.72
2022-10-05T23:10:49.671Z,8.70
2022-10-05T23:13:16.246Z,7.32
2022-10-05T23:15:44.253Z,7.70
2022-10-05T23:18:11.674Z,7.75
2022-10-05T23:20:38.218Z,6.90
2022-10-05T23:23:04.870Z,9.40
2022-10-05T23:25:31.559Z,9.48
2022-10-05T23:27:58.186Z,9.52
2022-10-05T23:30:24.963Z,8.70
2022-10-05T23:32:53.234Z,8.55
2022-10-05T23:35:19.877Z,8.75
2022-10-05T23:37:46.504Z,8.43
2022-10-05T23:40:14.054Z,8.93
2022-10-05T23:42:41.003Z,9.70
2022-10-05T23:45:08.803Z,9.25
2022-10-05T23:47:35.786Z,9.65
2022-10-05T23:50:05.603Z,9.63
2022-10-05T23:52:32.188Z,9.52
2022-10-05T23:54:59.124Z,8.98
2022-10-05T23:57:25.784Z,9.35
2022-10-05T23:59:52.582Z,9.23
